Time;durP1;ratioP1;P1;durP2;ratioP2;P2;SDS_P1;SDS_P2;PMS_P1;PMS_P2;Temp;Humidity;BMP_temperature;BMP_pressure;BME280_temperature;BME280_humidity;BME280_pressure;Samples;Min_cycle;Max_cycle;Signal;HPM_P1;HPM_P2
2022/06/06 00:01:41;;;;;;;7.60;2.17;;;18.20;99.90;;;;;;5003524;28;20038;-82
2022/06/06 00:04:07;;;;;;;6.30;1.90;;;18.20;99.90;;;;;;5003406;28;20339;-82
2022/06/06 00:06:33;;;;;;;5.25;2.20;;;18.20;99.90;;;;;;5003454;28;20034;-82
2022/06/06 00:08:59;;;;;;;5.20;1.65;;;18.20;99.90;;;;;;5002411;28;20057;-82
2022/06/06 00:11:25;;;;;;;6.40;1.88;;;18.30;99.90;;;;;;5003915;28;20022;-82
2022/06/06 00:13:51;;;;;;;2.70;1.15;;;18.40;99.90;;;;;;5003589;28;20041;-82
2022/06/06 00:16:17;;;;;;;3.60;1.40;;;18.40;99.90;;;;;;5002624;28;20030;-82
2022/06/06 00:18:44;;;;;;;3.63;1.10;;;18.40;99.90;;;;;;5003863;28;20017;-82
2022/06/06 00:21:11;;;;;;;4.40;1.10;;;18.40;99.90;;;;;;5003645;28;20022;-82
2022/06/06 00:23:38;;;;;;;3.35;0.90;;;18.30;99.90;;;;;;5003480;28;20037;-82
2022/06/06 00:26:12;;;;;;;3.13;0.75;;;18.20;99.90;;;;;;5001561;28;20027;-82
2022/06/06 00:28:39;;;;;;;3.28;0.95;;;18.20;99.90;;;;;;5002472;28;20588;-82
2022/06/06 00:36:36;;;;;;;2.42;0.70;;;18.10;99.90;;;;;;4984565;28;20078;-82
2022/06/06 00:39:04;;;;;;;4.63;0.85;;;18.00;99.90;;;;;;4984845;28;20030;-82
2022/06/06 00:41:30;;;;;;;4.05;0.85;;;18.00;99.90;;;;;;4984410;28;20046;-82
2022/06/06 00:44:11;;;;;;;2.70;0.80;;;18.00;99.90;;;;;;4984225;28;20045;-82
2022/06/06 00:46:46;;;;;;;4.72;0.88;;;17.90;99.90;;;;;;4984495;28;20034;-82
2022/06/06 00:49:18;;;;;;;;;;;18.00;99.90;;;;;;4984123;28;20038;-82
2022/06/06 00:51:44;;;;;;;4.68;1.05;;;18.00;99.90;;;;;;4984604;28;19902;-82
2022/06/06 00:54:10;;;;;;;5.18;0.77;;;18.00;99.90;;;;;;4984326;28;20113;-82
2022/06/06 00:56:48;;;;;;;3.55;1.00;;;18.10;99.90;;;;;;4984613;28;20041;-82
2022/06/06 00:59:19;;;;;;;3.55;0.65;;;18.10;99.90;;;;;;4984003;28;20026;-82
2022/06/06 01:01:49;;;;;;;3.75;0.80;;;18.10;99.90;;;;;;4984378;28;20034;-82
2022/06/06 01:04:16;;;;;;;4.03;0.90;;;18.10;99.90;;;;;;4983812;28;20019;-82
2022/06/06 01:06:45;;;;;;;1.83;1.13;;;18.10;99.90;;;;;;4982516;28;20431;-82
2022/06/06 01:09:12;;;;;;;3.92;0.60;;;18.10;99.90;;;;;;4983659;28;20022;-82
2022/06/06 01:11:44;;;;;;;5.97;1.02;;;18.10;99.90;;;;;;4980057;28;20109;-82
2022/06/06 01:14:14;;;;;;;4.20;1.00;;;18.10;99.90;;;;;;4983484;28;20038;-82
2022/06/06 01:16:49;;;;;;;9.20;0.90;;;18.10;99.90;;;;;;4983840;28;20034;-82
2022/06/06 01:19:17;;;;;;;3.83;0.60;;;18.00;99.90;;;;;;4996502;28;20184;-82
2022/06/06 01:22:05;;;;;;;5.53;0.65;;;18.00;99.90;;;;;;5002810;28;20017;-82
2022/06/06 01:24:54;;;;;;;4.30;1.00;;;17.90;99.90;;;;;;5002765;28;20026;-82
2022/06/06 01:27:42;;;;;;;5.22;1.00;;;17.90;99.90;;;;;;5002101;28;20049;-82
2022/06/06 01:30:12;;;;;;;8.85;1.20;;;17.90;99.90;;;;;;5001262;28;20229;-82
2022/06/06 01:32:56;;;;;;;4.43;0.80;;;17.80;99.90;;;;;;5002451;28;20046;-82
2022/06/06 01:35:51;;;;;;;4.85;0.90;;;17.90;99.90;;;;;;5002321;28;20077;-82
2022/06/06 01:38:21;;;;;;;5.80;0.75;;;17.90;99.90;;;;;;4993187;28;20085;-82
2022/06/06 01:40:56;;;;;;;2.47;0.68;;;17.90;99.90;;;;;;5002317;28;20045;-82
2022/06/06 01:43:30;;;;;;;3.38;0.60;;;17.80;99.90;;;;;;5001040;28;20036;-82
2022/06/06 01:46:01;;;;;;;5.90;0.98;;;17.90;99.90;;;;;;5000507;28;20262;-82
2022/06/06 01:48:33;;;;;;;4.95;0.80;;;17.90;99.90;;;;;;5000808;28;20034;-82
2022/06/06 01:51:06;;;;;;;3.85;0.73;;;17.90;99.90;;;;;;5001798;28;20034;-82
2022/06/06 01:53:36;;;;;;;6.25;0.80;;;17.90;99.90;;;;;;5001724;28;20029;-82
2022/06/06 01:56:03;;;;;;;3.13;0.75;;;18.00;99.90;;;;;;5001782;28;20022;-82
2022/06/06 01:58:32;;;;;;;5.28;0.70;;;17.90;99.90;;;;;;5001565;28;20053;-82
2022/06/06 02:00:58;;;;;;;2.22;0.70;;;18.00;99.90;;;;;;5002088;28;20015;-82
2022/06/06 02:03:24;;;;;;;5.40;1.00;;;18.00;99.90;;;;;;5001551;28;20026;-82
2022/06/06 02:05:50;;;;;;;6.18;0.82;;;18.00;99.90;;;;;;5001702;28;20259;-82
2022/06/06 02:08:16;;;;;;;5.57;2.00;;;18.00;99.90;;;;;;5001920;28;20093;-82
2022/06/06 02:10:43;;;;;;;3.33;0.68;;;18.00;99.90;;;;;;5001687;28;20061;-82
2022/06/06 02:13:08;;;;;;;7.15;0.90;;;18.00;99.90;;;;;;5001133;28;20018;-82
2022/06/06 02:15:36;;;;;;;5.22;1.30;;;18.00;99.90;;;;;;4999170;28;20459;-82
2022/06/06 02:18:02;;;;;;;3.53;1.05;;;18.00;99.90;;;;;;5000577;28;20057;-82
2022/06/06 02:20:30;;;;;;;3.85;0.70;;;18.00;99.90;;;;;;5001704;28;20022;-82
2022/06/06 02:22:56;;;;;;;2.95;0.70;;;17.90;99.90;;;;;;5000957;28;20042;-82
2022/06/06 02:25:22;;;;;;;3.22;0.77;;;17.90;99.90;;;;;;5001119;28;20041;-82
2022/06/06 02:27:48;;;;;;;3.97;0.80;;;18.00;99.90;;;;;;5001092;28;20306;-82
2022/06/06 02:30:18;;;;;;;4.93;0.80;;;18.00;99.90;;;;;;5000926;28;20045;-82
2022/06/06 02:32:43;;;;;;;6.30;1.33;;;17.90;99.90;;;;;;5001336;28;20046;-82
2022/06/06 02:35:13;;;;;;;4.05;0.63;;;17.90;99.90;;;;;;5001259;28;20261;-82
2022/06/06 02:37:40;;;;;;;6.03;0.70;;;17.80;99.90;;;;;;5000945;28;20121;-82
2022/06/06 02:40:09;;;;;;;3.65;0.60;;;17.80;99.90;;;;;;5000856;28;20034;-82
2022/06/06 02:42:35;;;;;;;5.28;1.08;;;17.80;99.90;;;;;;5001204;28;20026;-82
2022/06/06 02:45:02;;;;;;;4.78;0.95;;;17.80;99.90;;;;;;5001266;28;20394;-82
2022/06/06 02:47:29;;;;;;;3.25;0.80;;;17.90;99.90;;;;;;5000336;28;20260;-82
2022/06/06 02:49:55;;;;;;;2.78;0.70;;;17.90;99.90;;;;;;5003401;28;20241;-82
2022/06/06 02:52:21;;;;;;;4.90;0.93;;;18.00;99.90;;;;;;5005062;28;20221;-82
2022/06/06 02:54:47;;;;;;;4.10;0.90;;;18.00;99.90;;;;;;5004938;28;20030;-82
2022/06/06 02:57:12;;;;;;;5.28;1.58;;;18.00;99.90;;;;;;5004526;28;20207;-82
2022/06/06 02:59:41;;;;;;;4.88;0.80;;;18.00;99.90;;;;;;5003514;28;20023;-82
2022/06/06 03:02:08;;;;;;;4.97;1.67;;;17.90;99.90;;;;;;5004890;28;20030;-82
2022/06/06 03:04:34;;;;;;;7.30;0.95;;;17.90;99.90;;;;;;5004011;28;20022;-82
2022/06/06 03:07:03;;;;;;;3.38;0.63;;;17.80;99.90;;;;;;5001753;28;20076;-82
2022/06/06 03:10:10;;;;;;;3.90;0.75;;;17.80;99.90;;;;;;5004013;28;20318;-82
2022/06/06 03:12:58;;;;;;;6.07;1.45;;;17.80;99.90;;;;;;4983309;28;20062;-82
2022/06/06 03:23:15;;;;;;;3.45;0.90;;;17.80;99.90;;;;;;4969178;28;20033;-82
2022/06/06 03:25:52;;;;;;;3.08;0.77;;;17.90;99.90;;;;;;5004419;28;20241;-82
2022/06/06 03:29:07;;;;;;;3.40;0.80;;;18.00;99.90;;;;;;5003581;28;20038;-82
2022/06/06 03:31:33;;;;;;;;;;;18.00;99.90;;;;;;4946979;29;20051;-82
2022/06/06 03:34:29;;;;;;;4.78;0.73;;;18.10;99.90;;;;;;4962774;29;19902;-82
2022/06/06 03:37:13;;;;;;;3.35;0.70;;;18.00;99.90;;;;;;4978994;28;20034;-82
2022/06/06 03:39:44;;;;;;;2.38;0.75;;;18.10;99.90;;;;;;4986137;28;20026;-82
2022/06/06 03:42:18;;;;;;;4.97;0.80;;;18.10;99.90;;;;;;4984887;28;20070;-82
2022/06/06 03:45:12;;;;;;;3.15;0.60;;;18.10;99.90;;;;;;4985192;28;20102;-83
2022/06/06 03:48:03;;;;;;;4.43;0.75;;;18.10;99.90;;;;;;4995681;28;20081;-82
2022/06/06 03:50:53;;;;;;;4.05;1.00;;;18.10;99.90;;;;;;4999523;28;20184;-82
2022/06/06 03:53:23;;;;;;;2.65;0.68;;;18.20;99.90;;;;;;5004031;28;20034;-82
2022/06/06 03:56:03;;;;;;;3.70;0.95;;;18.10;99.90;;;;;;5003838;28;20026;-83
2022/06/06 03:58:32;;;;;;;3.08;0.93;;;18.10;99.90;;;;;;5004035;28;20022;-82
2022/06/06 04:01:02;;;;;;;4.20;1.13;;;18.10;99.90;;;;;;5003765;28;20026;-82
2022/06/06 04:03:28;;;;;;;3.95;0.90;;;18.00;99.90;;;;;;5003667;28;20306;-82
2022/06/06 04:05:56;;;;;;;9.40;1.23;;;18.00;99.90;;;;;;5004039;28;20313;-82
2022/06/06 04:08:21;;;;;;;3.65;0.70;;;18.00;99.90;;;;;;5003940;28;20061;-83
2022/06/06 04:11:11;;;;;;;5.43;0.90;;;17.90;99.90;;;;;;5004213;28;20093;-82
2022/06/06 04:13:44;;;;;;;3.45;0.68;;;17.80;99.90;;;;;;5003649;28;20022;-82
2022/06/06 04:17:08;;;;;;;4.03;1.02;;;17.80;99.90;;;;;;5003136;28;20018;-82
2022/06/06 04:20:27;;;;;;;4.18;0.93;;;17.80;99.90;;;;;;4961760;28;20035;-82
2022/06/06 04:23:11;;;;;;;3.00;0.60;;;17.90;99.90;;;;;;4957777;29;20215;-82
2022/06/06 04:25:55;;;;;;;3.97;0.80;;;17.80;99.90;;;;;;4982494;28;20118;-82
2022/06/06 04:28:36;;;;;;;3.22;1.00;;;17.90;99.90;;;;;;5003640;28;20019;-82
2022/06/06 04:31:19;;;;;;;6.35;1.52;;;17.90;99.90;;;;;;5003625;28;20050;-82
2022/06/06 04:34:10;;;;;;;2.67;0.80;;;17.90;99.90;;;;;;5003778;28;20018;-82
2022/06/06 04:37:14;;;;;;;3.05;0.75;;;17.90;99.90;;;;;;5003205;28;20230;-82
2022/06/06 04:39:49;;;;;;;4.15;0.75;;;17.90;99.90;;;;;;4980231;28;20031;-82
2022/06/06 04:42:34;;;;;;;9.48;1.40;;;18.00;99.90;;;;;;4984382;28;20019;-82
2022/06/06 04:45:31;;;;;;;2.42;0.73;;;18.00;99.90;;;;;;4998386;28;20030;-82
2022/06/06 04:47:59;;;;;;;5.85;0.93;;;18.00;99.90;;;;;;5002799;28;20028;-82
2022/06/06 04:50:25;;;;;;;2.17;0.85;;;18.00;99.90;;;;;;5002413;28;20058;-82
2022/06/06 04:52:55;;;;;;;5.03;1.10;;;18.00;99.90;;;;;;5002373;28;20292;-82
2022/06/06 04:55:23;;;;;;;4.45;1.33;;;18.00;99.90;;;;;;5002606;28;20018;-82
2022/06/06 04:57:53;;;;;;;3.67;1.25;;;18.00;99.90;;;;;;5002325;28;20030;-82
2022/06/06 05:00:20;;;;;;;4.15;0.60;;;18.00;99.90;;;;;;5003045;28;20018;-82
2022/06/06 05:02:46;;;;;;;4.35;0.75;;;18.00;99.90;;;;;;5002463;28;20306;-82
2022/06/06 05:05:12;;;;;;;5.10;1.00;;;18.10;99.90;;;;;;5002003;28;20023;-82
2022/06/06 05:08:01;;;;;;;4.63;0.80;;;18.10;99.90;;;;;;5002281;28;20030;-82
2022/06/06 05:10:43;;;;;;;3.85;1.48;;;18.10;99.90;;;;;;5002886;28;20034;-82
2022/06/06 05:13:30;;;;;;;4.45;0.80;;;18.20;99.90;;;;;;5002087;28;20329;-82
2022/06/06 05:16:05;;;;;;;4.43;1.08;;;18.20;99.90;;;;;;5002655;28;20499;-82
2022/06/06 05:18:33;;;;;;;3.42;0.90;;;18.30;99.90;;;;;;5002609;28;20023;-82
2022/06/06 05:21:26;;;;;;;4.82;0.90;;;18.30;99.90;;;;;;5002623;28;20026;-80
2022/06/06 05:24:23;;;;;;;4.82;1.33;;;18.40;99.90;;;;;;5002738;28;20321;-80
2022/06/06 05:26:57;;;;;;;6.00;1.10;;;18.40;99.90;;;;;;5001558;28;20022;-80
2022/06/06 05:29:56;;;;;;;5.20;0.80;;;18.50;99.90;;;;;;4988039;28;20054;-80
2022/06/06 05:32:41;;;;;;;3.72;0.93;;;18.50;99.90;;;;;;4985931;28;20129;-80
2022/06/06 05:35:35;;;;;;;2.53;0.65;;;18.50;99.90;;;;;;4986563;28;20022;-81
2022/06/06 05:38:06;;;;;;;2.38;0.70;;;18.50;99.90;;;;;;4979158;28;20026;-81
2022/06/06 05:41:02;;;;;;;5.20;0.90;;;18.50;99.90;;;;;;4988832;28;20201;-81
2022/06/06 05:43:48;;;;;;;7.32;1.63;;;18.50;99.90;;;;;;4988791;28;20052;-81
2022/06/06 05:46:29;;;;;;;7.18;0.98;;;18.50;99.90;;;;;;4982496;28;20547;-81
2022/06/06 05:49:17;;;;;;;1.90;0.60;;;18.40;99.90;;;;;;4971509;28;20023;-81
2022/06/06 05:51:57;;;;;;;4.60;0.55;;;18.40;99.90;;;;;;4972324;28;20038;-81
2022/06/06 05:54:44;;;;;;;2.80;0.68;;;18.50;99.90;;;;;;4971909;28;20101;-81
2022/06/06 05:57:13;;;;;;;2.45;0.73;;;18.50;99.90;;;;;;4984244;28;20027;-81
2022/06/06 06:00:09;;;;;;;2.17;0.60;;;18.50;99.90;;;;;;4990858;28;20098;-80
2022/06/06 06:02:46;;;;;;;1.63;0.60;;;18.60;99.90;;;;;;4990600;28;20034;-81
2022/06/06 06:05:13;;;;;;;4.68;0.77;;;18.60;99.90;;;;;;4990363;28;20033;-81
2022/06/06 06:08:07;;;;;;;3.92;0.70;;;18.60;99.90;;;;;;4990380;28;20058;-81
2022/06/06 06:10:41;;;;;;;4.68;0.57;;;18.60;99.90;;;;;;4990279;28;20406;-80
2022/06/06 06:13:46;;;;;;;2.05;0.55;;;18.60;99.90;;;;;;4990544;28;20334;-81
2022/06/06 06:16:15;;;;;;;3.13;0.70;;;18.60;99.90;;;;;;4971057;28;20487;-81
2022/06/06 06:18:56;;;;;;;5.15;1.20;;;18.60;99.90;;;;;;4985199;28;20018;-80
2022/06/06 06:21:25;;;;;;;4.38;0.90;;;18.60;99.90;;;;;;4990076;28;20109;-80
2022/06/06 06:24:14;;;;;;;6.03;1.02;;;18.60;99.90;;;;;;4989983;28;20053;-80
2022/06/06 06:26:41;;;;;;;4.28;1.05;;;18.80;99.90;;;;;;4990154;28;20038;-80
2022/06/06 06:29:09;;;;;;;3.78;0.77;;;18.80;99.90;;;;;;4990043;28;20030;-81
2022/06/06 06:32:01;;;;;;;2.50;0.70;;;18.80;99.90;;;;;;4989948;28;20054;-81
2022/06/06 06:34:27;;;;;;;2.97;0.55;;;19.00;99.90;;;;;;4990068;28;20018;-81
2022/06/06 06:37:03;;;;;;;2.58;0.47;;;19.30;99.90;;;;;;4989874;28;20041;-81
2022/06/06 06:39:47;;;;;;;3.88;0.60;;;19.40;99.90;;;;;;4989983;28;20105;-81
2022/06/06 06:42:29;;;;;;;4.78;0.95;;;19.30;99.90;;;;;;4990282;28;20035;-81
2022/06/06 06:45:03;;;;;;;5.03;0.60;;;19.20;99.90;;;;;;4990139;28;20034;-80
2022/06/06 06:47:32;;;;;;;1.83;0.40;;;19.20;99.90;;;;;;4989969;28;20033;-80
2022/06/06 06:50:06;;;;;;;4.47;0.80;;;19.10;99.90;;;;;;4989692;28;20064;-80
2022/06/06 06:52:35;;;;;;;5.70;0.63;;;18.90;99.90;;;;;;4989796;28;20487;-80
2022/06/06 06:55:32;;;;;;;3.10;0.70;;;18.80;99.90;;;;;;4989959;28;20472;-80
2022/06/06 06:58:12;;;;;;;2.67;0.95;;;18.70;99.90;;;;;;4989914;28;20105;-80
2022/06/06 07:01:12;;;;;;;2.90;0.70;;;18.60;99.90;;;;;;4989843;28;20061;-79
2022/06/06 07:10:18;;;;;;;5.95;0.50;;;18.90;99.90;;;;;;4989821;28;20046;-80
2022/06/06 07:12:53;;;;;;;3.83;0.70;;;18.80;99.90;;;;;;4989712;28;20610;-80
2022/06/06 07:15:31;;;;;;;4.45;1.00;;;18.90;99.90;;;;;;4989466;28;20026;-79
2022/06/06 07:18:02;;;;;;;5.32;0.80;;;19.10;99.90;;;;;;4989730;28;20125;-80
2022/06/06 07:20:28;;;;;;;5.05;0.82;;;19.40;99.90;;;;;;4989656;28;20069;-80
2022/06/06 07:22:59;;;;;;;3.22;0.52;;;19.50;99.90;;;;;;4989726;28;20170;-79
2022/06/06 07:25:26;;;;;;;3.67;0.82;;;19.50;99.90;;;;;;4989832;28;20028;-79
2022/06/06 07:27:52;;;;;;;3.25;0.98;;;19.60;99.90;;;;;;4989408;28;20030;-81
2022/06/06 07:30:21;;;;;;;2.72;0.80;;;19.70;99.90;;;;;;4989108;28;20062;-81
2022/06/06 07:33:05;;;;;;;4.47;0.82;;;19.70;99.90;;;;;;4989597;28;20053;-81
2022/06/06 07:36:02;;;;;;;3.80;0.70;;;19.80;99.90;;;;;;4991003;28;20077;-81
2022/06/06 07:39:00;;;;;;;4.05;0.82;;;19.50;99.90;;;;;;4993290;28;20038;-81
2022/06/06 07:42:03;;;;;;;3.60;0.75;;;19.40;99.90;;;;;;4993617;28;20030;-81
2022/06/06 07:44:53;;;;;;;4.25;0.70;;;19.60;99.90;;;;;;4992884;28;20022;-80
2022/06/06 07:47:34;;;;;;;2.47;0.60;;;19.50;99.90;;;;;;4992928;28;20030;-81
2022/06/06 07:50:11;;;;;;;2.45;0.70;;;19.50;99.90;;;;;;4993181;28;20048;-80
2022/06/06 07:53:02;;;;;;;5.05;0.63;;;19.50;99.90;;;;;;4992956;28;20042;-80
2022/06/06 07:55:33;;;;;;;4.28;0.50;;;19.60;99.90;;;;;;4992789;28;20470;-80
2022/06/06 07:58:27;;;;;;;2.53;0.60;;;19.70;99.90;;;;;;4992952;28;20026;-80
2022/06/06 08:01:26;;;;;;;3.22;0.70;;;19.80;99.90;;;;;;4992723;28;20026;-80
2022/06/06 08:04:04;;;;;;;1.58;0.70;;;20.20;99.90;;;;;;4962566;28;20122;-80
2022/06/06 08:06:29;;;;;;;2.90;0.60;;;20.30;99.90;;;;;;4973967;28;20019;-80
2022/06/06 08:09:01;;;;;;;5.60;0.55;;;20.30;99.90;;;;;;4973839;28;20043;-80
2022/06/06 08:11:47;;;;;;;3.40;0.77;;;20.40;99.90;;;;;;4973909;28;20054;-80
2022/06/06 08:14:31;;;;;;;4.93;0.65;;;20.50;99.90;;;;;;4973731;28;20023;-80
2022/06/06 08:17:19;;;;;;;3.10;0.60;;;20.60;99.90;;;;;;4986376;28;20022;-80
2022/06/06 08:19:56;;;;;;;2.70;0.70;;;20.50;99.90;;;;;;4992119;28;20030;-80
2022/06/06 08:22:24;;;;;;;1.80;0.55;;;20.50;99.90;;;;;;4992276;28;20109;-80
2022/06/06 08:24:54;;;;;;;5.07;1.05;;;20.60;99.90;;;;;;4992129;28;20119;-80
2022/06/06 08:27:20;;;;;;;4.90;1.00;;;20.80;99.90;;;;;;4992255;28;20029;-80
2022/06/06 08:29:48;;;;;;;4.50;0.90;;;20.90;99.90;;;;;;4992083;28;20038;-80
2022/06/06 08:32:14;;;;;;;3.85;1.05;;;21.20;99.90;;;;;;4992263;28;20132;-80
2022/06/06 08:34:41;;;;;;;2.85;1.30;;;21.50;99.90;;;;;;4992198;28;20019;-80
2022/06/06 08:37:19;;;;;;;6.38;1.23;;;21.20;99.90;;;;;;4992130;28;20488;-80
2022/06/06 08:39:54;;;;;;;2.97;0.65;;;21.00;99.90;;;;;;4980687;28;20499;-80
2022/06/06 08:43:00;;;;;;;2.00;0.70;;;21.10;99.90;;;;;;4973281;28;20037;-80
2022/06/06 08:45:59;;;;;;;4.82;1.08;;;21.20;99.90;;;;;;4989779;28;20479;-80
2022/06/06 08:48:55;;;;;;;4.90;0.93;;;21.20;99.90;;;;;;4991107;28;20026;-80
2022/06/06 08:51:37;;;;;;;2.70;0.90;;;21.30;99.90;;;;;;4991846;28;20034;-80
2022/06/06 08:54:15;;;;;;;3.53;0.73;;;21.50;99.90;;;;;;4991889;28;20121;-80
2022/06/06 08:57:16;;;;;;;1.90;0.80;;;21.80;99.90;;;;;;4991622;28;20101;-80
2022/06/06 09:00:06;;;;;;;3.53;0.73;;;21.90;99.90;;;;;;4991725;28;20041;-80
2022/06/06 09:02:58;;;;;;;56.95;5.10;;;21.80;99.90;;;;;;4991649;28;20082;-83
2022/06/06 09:06:01;;;;;;;4.28;0.80;;;21.40;99.90;;;;;;4964311;28;20034;-83
2022/06/06 09:09:05;;;;;;;3.80;0.90;;;21.40;99.90;;;;;;4989552;28;20026;-80
2022/06/06 09:12:08;;;;;;;7.85;1.33;;;21.20;99.90;;;;;;4991699;28;20140;-79
2022/06/06 09:14:40;;;;;;;4.57;0.80;;;21.40;99.90;;;;;;4991346;28;20030;-79
2022/06/06 09:17:16;;;;;;;3.70;0.63;;;21.40;99.90;;;;;;4991274;28;20033;-77
2022/06/06 09:19:54;;;;;;;3.08;0.70;;;21.20;99.90;;;;;;4991269;28;20054;-77
2022/06/06 09:22:42;;;;;;;7.10;1.02;;;21.10;99.90;;;;;;4991239;28;20521;-79
2022/06/06 09:25:38;;;;;;;3.55;0.70;;;20.80;99.90;;;;;;4991694;28;20505;-75
2022/06/06 09:28:25;;;;;;;3.63;0.70;;;21.00;99.90;;;;;;4991173;28;20033;-76
2022/06/06 09:31:00;;;;;;;2.67;0.80;;;21.10;99.90;;;;;;4991276;28;20054;-75
2022/06/06 09:33:37;;;;;;;3.47;0.70;;;21.30;99.90;;;;;;4991337;28;20041;-77
2022/06/06 09:36:23;;;;;;;1.70;0.68;;;21.20;99.90;;;;;;4994221;28;20054;-75
2022/06/06 09:39:17;;;;;;;2.47;0.63;;;21.20;99.90;;;;;;4990889;28;20026;-76
2022/06/06 09:42:27;;;;;;;2.60;0.68;;;21.30;99.90;;;;;;4991226;28;20022;-83
2022/06/06 09:45:19;;;;;;;3.58;0.68;;;21.40;99.90;;;;;;4993773;28;20023;-83
2022/06/06 09:47:57;;;;;;;5.25;1.10;;;21.10;99.90;;;;;;4993899;28;20608;-85
2022/06/06 09:50:49;;;;;;;2.88;0.65;;;21.20;99.90;;;;;;4992373;28;20084;-83
2022/06/06 09:53:29;;;;;;;3.15;0.70;;;21.30;99.90;;;;;;4988137;28;20022;-84
2022/06/06 09:59:38;;;;;;;3.50;0.57;;;20.30;99.90;;;;;;4970533;28;20465;-84
2022/06/06 10:02:32;;;;;;;8.70;1.67;;;20.00;99.90;;;;;;4990243;28;20077;-84
2022/06/06 10:05:22;;;;;;;3.38;1.02;;;19.70;99.90;;;;;;4990793;28;20026;-79
2022/06/06 10:08:15;;;;;;;5.82;1.50;;;19.50;99.90;;;;;;4990385;28;20045;-79
2022/06/06 10:11:09;;;;;;;5.95;1.75;;;19.30;99.90;;;;;;4990202;28;20038;-80
2022/06/06 10:13:57;;;;;;;6.78;2.65;;;19.10;99.90;;;;;;4990208;28;20464;-80
2022/06/06 10:16:45;;;;;;;6.50;1.45;;;18.80;99.90;;;;;;4990482;28;20050;-80
2022/06/06 10:19:37;;;;;;;8.90;2.20;;;18.60;99.90;;;;;;4990649;28;20534;-80
2022/06/06 10:22:30;;;;;;;5.38;2.67;;;18.40;99.90;;;;;;4971590;28;20495;-82
2022/06/06 10:25:20;;;;;;;7.45;1.65;;;18.20;99.90;;;;;;4987358;28;20026;-81
2022/06/06 10:27:55;;;;;;;7.22;1.73;;;18.30;99.90;;;;;;4990597;28;20022;-81
2022/06/06 10:30:26;;;;;;;5.75;1.40;;;18.30;99.90;;;;;;4990022;28;20101;-80
2022/06/06 10:33:12;;;;;;;4.30;1.75;;;18.30;99.90;;;;;;4990045;28;20023;-80
2022/06/06 10:36:00;;;;;;;7.10;1.77;;;18.10;99.90;;;;;;4989991;28;20034;-80
2022/06/06 10:38:47;;;;;;;6.60;1.33;;;18.00;99.90;;;;;;4990029;28;20176;-80
2022/06/06 10:41:31;;;;;;;5.95;1.50;;;17.90;99.90;;;;;;4990533;28;20027;-80
2022/06/06 10:44:10;;;;;;;5.32;1.48;;;17.80;99.90;;;;;;4989948;28;20414;-80
2022/06/06 10:46:53;;;;;;;3.92;1.65;;;17.80;99.90;;;;;;4990123;28;20084;-79
2022/06/06 10:49:37;;;;;;;4.38;1.40;;;17.60;99.90;;;;;;4989848;28;20065;-80
2022/06/06 10:52:17;;;;;;;6.88;1.42;;;17.60;99.90;;;;;;4989918;28;20037;-79
2022/06/06 10:55:01;;;;;;;3.50;1.30;;;17.60;99.90;;;;;;4989837;28;20050;-80
2022/06/06 10:57:57;;;;;;;5.95;1.92;;;17.70;99.90;;;;;;4990126;28;20181;-80
2022/06/06 11:00:51;;;;;;;7.43;1.80;;;17.70;99.90;;;;;;4987663;28;20031;-80
2022/06/06 11:03:44;;;;;;;4.00;1.17;;;17.70;99.90;;;;;;4970845;28;20030;-80
2022/06/06 11:06:10;;;;;;;6.50;1.50;;;17.80;99.90;;;;;;4988541;28;20033;-79
2022/06/06 11:09:00;;;;;;;4.55;1.70;;;17.70;99.90;;;;;;4989655;28;20030;-80
2022/06/06 11:11:40;;;;;;;3.45;1.13;;;17.80;99.90;;;;;;4991814;28;20030;-79
2022/06/06 11:14:21;;;;;;;15.43;2.08;;;18.20;99.90;;;;;;4984210;28;20085;-81
2022/06/06 11:17:24;;;;;;;4.95;1.13;;;18.30;99.90;;;;;;4986339;28;20022;-80
2022/06/06 11:20:02;;;;;;;3.40;1.20;;;18.30;99.90;;;;;;5001268;28;20213;-81
2022/06/06 11:23:02;;;;;;;5.43;1.35;;;18.50;99.90;;;;;;5005150;28;20018;-82
2022/06/06 11:25:32;;;;;;;5.38;1.45;;;18.50;99.90;;;;;;5004861;28;20087;-83
2022/06/06 11:28:28;;;;;;;4.03;1.48;;;18.60;99.90;;;;;;5004871;28;20037;-81
2022/06/06 11:31:23;;;;;;;6.43;1.23;;;18.60;99.90;;;;;;5004649;28;20125;-80
2022/06/06 11:34:01;;;;;;;;;;;18.50;99.90;;;;;;5005287;28;20049;-82
2022/06/06 11:36:34;;;;;;;5.35;1.20;;;18.50;99.90;;;;;;5002724;28;20093;-81
2022/06/06 11:39:21;;;;;;;5.07;1.10;;;18.40;99.90;;;;;;5004321;28;20030;-80
2022/06/06 11:42:23;;;;;;;4.47;1.50;;;18.30;99.90;;;;;;5004512;28;20214;-81
2022/06/06 11:45:24;;;;;;;5.43;1.10;;;18.20;99.90;;;;;;5004336;28;20069;-80
2022/06/06 11:48:06;;;;;;;4.60;1.55;;;18.20;99.90;;;;;;4977352;28;20224;-81
2022/06/06 11:51:07;;;;;;;5.28;1.20;;;18.30;99.90;;;;;;4985671;28;20077;-81
2022/06/06 11:54:03;;;;;;;3.92;1.60;;;18.20;99.90;;;;;;5000374;28;20026;-81
2022/06/06 11:56:53;;;;;;;8.23;1.52;;;18.30;99.90;;;;;;5004540;28;20351;-82
2022/06/06 11:59:49;;;;;;;4.05;1.52;;;18.20;99.90;;;;;;5004023;28;20014;-82
2022/06/06 12:02:48;;;;;;;5.82;1.13;;;18.10;99.90;;;;;;5004227;28;20028;-81
2022/06/06 12:05:22;;;;;;;10.18;2.10;;;18.30;99.90;;;;;;5004111;28;20049;-81
2022/06/06 12:08:00;;;;;;;;;;;18.40;99.90;;;;;;5004782;28;20076;-81
2022/06/06 12:10:32;;;;;;;6.95;1.25;;;18.60;99.90;;;;;;5004584;28;19910;-81
2022/06/06 12:13:12;;;;;;;4.18;1.15;;;18.80;99.90;;;;;;5004294;28;20110;-81
2022/06/06 12:15:59;;;;;;;4.22;0.95;;;18.80;99.90;;;;;;5003965;28;20037;-80
2022/06/06 12:18:46;;;;;;;4.05;1.05;;;18.80;99.90;;;;;;5003802;28;20171;-80
2022/06/06 12:21:23;;;;;;;4.85;1.00;;;18.80;99.90;;;;;;5003062;28;20015;-80
2022/06/06 12:23:55;;;;;;;4.97;1.85;;;18.90;99.90;;;;;;5004009;28;20253;-79
2022/06/06 12:26:56;;;;;;;3.03;1.08;;;18.90;99.90;;;;;;5003858;28;20033;-80
2022/06/06 12:29:55;;;;;;;5.82;1.20;;;19.00;99.90;;;;;;4973727;28;20034;-80
2022/06/06 12:32:27;;;;;;;4.82;0.80;;;19.20;99.90;;;;;;5001025;28;20105;-80
2022/06/06 12:35:03;;;;;;;4.75;1.08;;;18.90;99.90;;;;;;5003696;28;20026;-81
2022/06/06 12:37:40;;;;;;;4.05;1.15;;;18.90;99.90;;;;;;5003549;28;20010;-80
2022/06/06 12:40:37;;;;;;;5.22;1.15;;;19.30;99.90;;;;;;5003754;28;20313;-80
2022/06/06 12:43:27;;;;;;;3.70;1.20;;;19.80;99.90;;;;;;5002320;28;20026;-81
2022/06/06 12:46:12;;;;;;;5.63;1.20;;;20.20;99.90;;;;;;5003176;28;20214;-80
2022/06/06 12:49:08;;;;;;;5.00;1.23;;;20.20;99.90;;;;;;5002939;28;20018;-82
2022/06/06 12:51:53;;;;;;;4.28;1.27;;;20.50;99.90;;;;;;5003000;28;20093;-82
2022/06/06 12:54:18;;;;;;;4.95;1.00;;;20.80;99.90;;;;;;5003109;28;20311;-82
2022/06/06 12:56:51;;;;;;;3.45;1.17;;;20.40;99.90;;;;;;5002730;28;20081;-83
2022/06/06 12:59:25;;;;;;;6.95;1.20;;;20.20;99.90;;;;;;5002715;28;20045;-83
2022/06/06 13:02:15;;;;;;;5.40;0.80;;;19.90;99.90;;;;;;5001769;28;20038;-83
2022/06/06 13:04:59;;;;;;;3.08;0.98;;;19.60;99.90;;;;;;5002318;28;20089;-84
2022/06/06 13:07:42;;;;;;;5.00;0.80;;;19.70;99.90;;;;;;5002569;28;20058;-83
2022/06/06 13:10:23;;;;;;;3.25;0.95;;;20.30;99.90;;;;;;5002559;28;20038;-83
2022/06/06 13:12:58;;;;;;;3.78;0.85;;;21.10;99.90;;;;;;5001621;28;20341;-84
2022/06/06 13:15:54;;;;;;;5.07;0.85;;;21.50;99.90;;;;;;5001664;28;20195;-84
2022/06/06 13:18:45;;;;;;;3.35;0.82;;;21.70;99.90;;;;;;5002466;28;20026;-83
2022/06/06 13:21:45;;;;;;;2.60;0.70;;;21.50;99.90;;;;;;5002211;28;20058;-84
2022/06/06 13:24:39;;;;;;;2.72;1.02;;;21.50;99.90;;;;;;4976510;28;20041;-84
2022/06/06 13:27:31;;;;;;;2.33;0.90;;;21.60;99.90;;;;;;4997433;28;20098;-86
2022/06/06 13:30:17;;;;;;;3.55;1.05;;;21.70;99.90;;;;;;5002169;28;20179;-82
2022/06/06 13:33:14;;;;;;;2.42;0.63;;;21.80;99.90;;;;;;4983083;28;20031;-82
2022/06/06 13:36:14;;;;;;;2.67;0.77;;;22.10;99.90;;;;;;4989022;28;20058;-83
2022/06/06 13:39:01;;;;;;;4.55;0.80;;;22.80;99.90;;;;;;4996306;28;20042;-82
2022/06/06 13:41:27;;;;;;;3.30;0.80;;;23.10;99.90;;;;;;5002448;28;20034;-83
2022/06/06 13:43:59;;;;;;;2.83;0.70;;;23.00;99.90;;;;;;5001893;28;20045;-82
2022/06/06 13:46:57;;;;;;;2.95;0.70;;;23.00;99.90;;;;;;5001180;28;20105;-82
2022/06/06 13:49:41;;;;;;;4.32;0.98;;;22.90;99.90;;;;;;5001014;28;20210;-83
2022/06/06 13:52:18;;;;;;;2.25;0.73;;;23.00;99.90;;;;;;5001800;28;20093;-83
2022/06/06 13:54:44;;;;;;;4.75;0.90;;;22.70;99.90;;;;;;5002177;28;20105;-83
2022/06/06 13:57:22;;;;;;;2.50;0.80;;;22.30;99.90;;;;;;5001747;28;20030;-83
2022/06/06 14:00:00;;;;;;;2.72;0.82;;;21.50;99.90;;;;;;5002179;28;20026;-82
2022/06/06 14:02:44;;;;;;;3.17;0.98;;;21.10;99.90;;;;;;5001848;28;20026;-82
2022/06/06 14:05:28;;;;;;;2.85;0.85;;;21.10;99.90;;;;;;5001594;28;20142;-82
2022/06/06 14:08:03;;;;;;;;;;;20.90;99.90;;;;;;5001781;28;20041;-82
2022/06/06 14:10:42;;;;;;;4.68;1.00;;;20.90;99.90;;;;;;5001878;28;20033;-82
2022/06/06 14:13:24;;;;;;;3.67;0.90;;;21.10;99.90;;;;;;5001551;28;20209;-83
2022/06/06 14:15:51;;;;;;;2.13;0.70;;;21.30;99.90;;;;;;5001835;28;20053;-82
2022/06/06 14:18:40;;;;;;;6.32;1.10;;;21.40;99.90;;;;;;5000400;28;20313;-89